Detall de PIREP

Printer-friendly versionPDF version

[2013/11/10 15:08:00]
Flight IATA:CT3125
Pilot Number:012
Company ICAO:CAT
Aircraft Type:A320/E
PAX:150
Departing Airport: LEVC
Destination Airport: LFMP
Alternate Airport:LFMT
Online: VATSIM
Route:SOPET UM985 BCN UN870 DALIN A67 BGR A27 KANIG
Flight Level:F280
No Slew and time accel
No pause
Crash detect
Detect pilot in Cockpit between each 30 and 45 minutes
15:08 Zero fuel Weight: 122608 Lbs, Fuel Weight: 14781 Lbs
15:08 VATSIM:LEVC 101430Z 29010KT 9999 FEW060 24/03 Q1020 NOSIG
15:08 VATSIM:LFMP 101430Z 30033G51KT 9999 BKN041 BKN230 18/09 Q1014 TEMPO 30030G55KT
15:08 VOICE CATALONIAN
15:09 Parking Brakes off
15:13 Take-off
15:13 Take off Weight: 136785 Lbs
15:13 Wind: 290º @ 010 Knots Heading: 295º
15:13 POS N39º 29´ 28´´ W000º 29´ 12´´
15:13 Gear Up: 172 Knots
15:13 Flaps:3 at 172 Knots
15:13 Flaps:2 at 187 Knots
15:14 Flaps:0 at 171 Knots
15:24 TOC
15:24 Fuel Weight: 11098 Lb
15:28 Wind:351º@065 Knots Heading: 040º Ground Speed: 426 Knots Altitude 28152 ft
15:43 Wind:338º@077 Knots Heading: 056º Ground Speed: 455 Knots Altitude 28051 ft
15:44 TOD
15:44 Fuel Weight: 8724 Lb
15:58 Wind:288º@033 Knots Heading: 336º Ground Speed: 250 Knots Altitude 7181 ft
16:05 Flaps:1 at 254 Knots
16:05 Flaps:0 at 250 Knots
16:05 Flaps:1 at 227 Knots
16:06 Flaps:3 at 190 Knots
16:07 Gear Down: 176 Knots
16:08 Flaps:4 at 154 Knots
16:08 Flaps:5 at 145 Knots
16:12 TouchDown:Rate -298 ft/min Speed: 130 Knots
16:12 VATSIM:LFMP 101600Z 31020G32KT 280V350 9999 BKN036 BKN230 17/10 Q1016 TEMPO 31025G45KT
16:12 Land
16:12 Wind:299º@034 Knots
16:12 Heading: 327º
16:12 Flight Duration: 00:59
16:12 Landing Weight: 128664 Lbs
16:12 POS N42º 44´ 39´´ E002º 52´ 11´´
16:14 Parking brakes on
16:14 Block to Block Duration: 01:05
16:14 Final Fuel: 5811 Lbls
16:14 Spent Fuel: 8970 Lbls
16:14 Flight Length: 322 NM
16:14 TOD Land Length: 114 NM

Exportar CSV

Powered by Drupal - Modified by Danger4k